Time;durP1;ratioP1;P1;durP2;ratioP2;P2;SDS_P1;SDS_P2;PMS_P1;PMS_P2;Temp;Humidity;BMP_temperature;BMP_pressure;BME280_temperature;BME280_humidity;BME280_pressure;Samples;Min_cycle;Max_cycle;Signal;HPM_P1;HPM_P2
2023/08/20 00:00:29;;;;;;;;;;;;;;;29.97;46.28;101617.45;107169;1267;25289;-49
2023/08/20 00:03:03;;;;;;;;;;;;;;;29.94;46.04;101616.64;107161;1263;25334;-49
2023/08/20 00:05:30;;;;;;;;;;;;;;;29.91;45.58;101615.30;106889;1266;25321;-49
2023/08/20 00:07:57;;;;;;;;;;;;;;;29.88;44.94;101613.27;107090;1258;25489;-48
2023/08/20 00:10:24;;;;;;;;;;;;;;;29.86;44.89;101608.86;107174;1267;25318;-49
2023/08/20 00:12:51;;;;;;;;;;;;;;;29.83;45.05;101614.43;107099;1256;24416;-48
2023/08/20 00:15:19;;;;;;;;;;;;;;;29.81;45.08;101609.44;106910;1266;25439;-48
2023/08/20 00:17:47;;;;;;;;;;;;;;;29.78;44.87;101607.91;107160;1261;25325;-49
2023/08/20 00:20:14;;;;;;;;;;;;;;;29.76;44.77;101604.17;106904;1264;25296;-49
2023/08/20 00:22:45;;;;;;;;;;;;;;;29.73;44.76;101601.88;107172;1264;25373;-48
2023/08/20 00:25:12;;;;;;;;;;;;;;;29.71;44.45;101605.66;107195;1261;22499;-49
2023/08/20 00:27:39;;;;;;;;;;;;;;;29.69;44.67;101608.70;107072;1263;22501;-49
2023/08/20 00:30:06;;;;;;;;;;;;;;;29.66;44.60;101604.83;106916;1273;25471;-48
2023/08/20 00:32:33;;;;;;;;;;;;;;;29.64;44.71;101604.47;107062;1263;25427;-48
2023/08/20 00:35:02;;;;;;;;;;;;;;;29.62;44.58;101603.08;106860;1267;381525;-49
2023/08/20 00:37:30;;;;;;;;;;;;;;;29.60;44.59;101601.26;107218;1267;23272;-49
2023/08/20 00:39:57;;;;;;;;;;;;;;;29.57;44.59;101600.09;107060;1251;24636;-48
2023/08/20 00:42:28;;;;;;;;;;;;;;;29.54;44.93;101596.22;107138;1258;25382;-48
2023/08/20 00:44:55;;;;;;;;;;;;;;;29.53;45.55;101592.80;107130;1255;25314;-49
2023/08/20 00:47:21;;;;;;;;;;;;;;;29.50;46.04;101589.45;107092;1267;25375;-48
2023/08/20 00:49:49;;;;;;;;;;;;;;;29.48;46.32;101586.40;107134;1261;25343;-49
2023/08/20 00:52:16;;;;;;;;;;;;;;;29.46;46.53;101585.19;107248;1261;25336;-48
2023/08/20 00:54:46;;;;;;;;;;;;;;;29.43;46.61;101585.44;107118;1263;25340;-48
2023/08/20 00:57:19;;;;;;;;;;;;;;;29.41;46.44;101587.20;106808;1267;25293;-49
2023/08/20 00:59:47;;;;;;;;;;;;;;;29.39;46.51;101590.41;106819;1260;25227;-48
2023/08/20 01:02:14;;;;;;;;;;;;;;;29.37;46.64;101587.74;106769;1266;23316;-49
2023/08/20 01:04:41;;;;;;;;;;;;;;;29.36;46.32;101593.08;106819;1257;25221;-49
2023/08/20 01:07:18;;;;;;;;;;;;;;;29.33;46.41;101596.20;106815;1263;25331;-48
2023/08/20 01:10:01;;;;;;;;;;;;;;;29.30;46.47;101596.58;106893;1254;25408;-49
2023/08/20 01:12:28;;;;;;;;;;;;;;;29.28;46.63;101598.02;106836;1257;22503;-48
2023/08/20 01:14:55;;;;;;;;;;;;;;;29.27;46.54;101599.36;106786;1254;25379;-49
2023/08/20 01:17:22;;;;;;;;;;;;;;;29.26;46.74;101601.29;106829;1257;25407;-48
2023/08/20 01:19:49;;;;;;;;;;;;;;;29.24;46.78;101600.19;106876;1257;25380;-48
2023/08/20 01:22:26;;;;;;;;;;;;;;;29.22;46.71;101599.98;106777;1269;24357;-48
2023/08/20 01:24:58;;;;;;;;;;;;;;;29.21;46.76;101604.04;106809;1257;25487;-50
2023/08/20 01:27:32;;;;;;;;;;;;;;;29.20;47.02;101600.56;106731;1270;24173;-48
2023/08/20 01:30:00;;;;;;;;;;;;;;;29.19;47.44;101598.13;107083;1257;25324;-48
2023/08/20 01:32:27;;;;;;;;;;;;;;;29.18;47.33;101597.88;106706;1258;25443;-48
2023/08/20 01:34:54;;;;;;;;;;;;;;;29.16;47.34;101600.34;106920;1267;25327;-49
2023/08/20 01:37:21;;;;;;;;;;;;;;;29.15;47.39;101595.63;107153;1263;24321;-48
2023/08/20 01:39:48;;;;;;;;;;;;;;;29.13;47.14;101593.44;107135;1261;25334;-48
2023/08/20 01:42:15;;;;;;;;;;;;;;;29.11;47.24;101593.39;107139;1263;25289;-48
2023/08/20 01:44:42;;;;;;;;;;;;;;;29.11;47.33;101596.11;107053;1264;25290;-48
2023/08/20 01:47:09;;;;;;;;;;;;;;;29.11;47.33;101593.77;107130;1258;25325;-48
2023/08/20 01:49:36;;;;;;;;;;;;;;;29.12;47.54;101597.13;106942;1266;25337;-49
2023/08/20 01:52:03;;;;;;;;;;;;;;;29.13;47.70;101597.78;106789;1263;25337;-48
2023/08/20 01:54:31;;;;;;;;;;;;;;;29.13;47.84;101597.04;106935;1258;25372;-49
2023/08/20 01:56:58;;;;;;;;;;;;;;;29.14;48.52;101598.40;106856;1269;22530;-49
2023/08/20 01:59:25;;;;;;;;;;;;;;;29.14;48.71;101600.87;106711;1270;25337;-48
2023/08/20 02:01:51;;;;;;;;;;;;;;;29.14;48.46;101602.11;106820;1270;25392;-49
2023/08/20 02:04:19;;;;;;;;;;;;;;;29.12;48.08;101604.96;107012;1267;25321;-48
2023/08/20 02:06:46;;;;;;;;;;;;;;;29.11;48.41;101611.08;107012;1257;25293;-48
2023/08/20 02:09:13;;;;;;;;;;;;;;;29.11;48.79;101612.60;106812;1267;25410;-48
2023/08/20 02:11:41;;;;;;;;;;;;;;;29.10;48.78;101614.11;107050;1254;25337;-48
2023/08/20 02:14:07;;;;;;;;;;;;;;;29.09;48.54;101616.34;107028;1256;25452;-49
2023/08/20 02:16:34;;;;;;;;;;;;;;;29.08;48.79;101615.32;106788;1261;25340;-48
2023/08/20 02:19:02;;;;;;;;;;;;;;;29.08;49.55;101623.04;106857;1260;25333;-48
2023/08/20 02:21:29;;;;;;;;;;;;;;;29.07;49.30;101625.10;107202;1267;25333;-48
2023/08/20 02:23:57;;;;;;;;;;;;;;;29.06;49.52;101624.45;107173;1263;24179;-49
2023/08/20 02:26:24;;;;;;;;;;;;;;;29.05;49.48;101621.28;107220;1264;25334;-48
2023/08/20 02:28:51;;;;;;;;;;;;;;;29.05;49.26;101620.60;106842;1274;25373;-48
2023/08/20 02:31:18;;;;;;;;;;;;;;;29.04;48.87;101618.31;107116;1257;25296;-48
2023/08/20 02:33:47;;;;;;;;;;;;;;;29.04;48.63;101618.35;107091;1254;25331;-48
2023/08/20 02:36:14;;;;;;;;;;;;;;;29.04;48.78;101615.45;107103;1257;25353;-49
2023/08/20 02:38:41;;;;;;;;;;;;;;;29.04;48.28;101614.19;107067;1251;22632;-48
2023/08/20 02:41:08;;;;;;;;;;;;;;;29.04;47.58;101613.05;107181;1260;25299;-49
2023/08/20 02:43:35;;;;;;;;;;;;;;;29.04;47.55;101614.55;107095;1267;25373;-48
2023/08/20 02:46:02;;;;;;;;;;;;;;;29.05;47.36;101615.61;106813;1258;25286;-49
2023/08/20 02:48:29;;;;;;;;;;;;;;;29.05;47.16;101613.98;107099;1254;25324;-48
2023/08/20 02:50:56;;;;;;;;;;;;;;;29.05;46.54;101614.73;107212;1256;25455;-48
2023/08/20 02:53:23;;;;;;;;;;;;;;;29.05;46.96;101612.34;107108;1257;25324;-48
2023/08/20 02:55:50;;;;;;;;;;;;;;;29.05;46.93;101611.46;107055;1266;22579;-49
2023/08/20 02:58:17;;;;;;;;;;;;;;;29.05;46.87;101611.13;106853;1267;25309;-48
2023/08/20 03:00:44;;;;;;;;;;;;;;;29.06;46.75;101614.80;107140;1255;25299;-48
2023/08/20 03:03:12;;;;;;;;;;;;;;;29.07;46.68;101616.66;107097;1264;25290;-49
2023/08/20 03:05:39;;;;;;;;;;;;;;;29.07;46.69;101617.52;107222;1257;25321;-49
2023/08/20 03:08:06;;;;;;;;;;;;;;;29.08;47.21;101619.30;107167;1263;25446;-48
2023/08/20 03:10:33;;;;;;;;;;;;;;;29.08;47.49;101624.80;107217;1263;22825;-49
2023/08/20 03:13:01;;;;;;;;;;;;;;;29.08;47.45;101619.98;107139;1260;25210;-49
2023/08/20 03:15:28;;;;;;;;;;;;;;;29.08;47.80;101624.09;107123;1260;22727;-48
2023/08/20 03:17:55;;;;;;;;;;;;;;;29.08;47.72;101623.05;107187;1254;25315;-48
2023/08/20 03:20:22;;;;;;;;;;;;;;;29.08;47.83;101621.08;106887;1267;24240;-49
2023/08/20 03:22:48;;;;;;;;;;;;;;;29.08;47.83;101622.29;107135;1256;23895;-48
2023/08/20 03:25:15;;;;;;;;;;;;;;;29.08;47.77;101618.14;107108;1263;25447;-48
2023/08/20 03:27:42;;;;;;;;;;;;;;;29.10;47.83;101620.13;107174;1260;25296;-48
2023/08/20 03:30:10;;;;;;;;;;;;;;;29.11;47.95;101618.30;107063;1260;25491;-48
2023/08/20 03:32:37;;;;;;;;;;;;;;;29.11;47.75;101620.39;107137;1259;24265;-48
2023/08/20 03:35:04;;;;;;;;;;;;;;;29.12;47.63;101622.30;107200;1251;25296;-48
2023/08/20 03:37:31;;;;;;;;;;;;;;;29.12;47.53;101622.45;107038;1263;24260;-48
2023/08/20 03:39:59;;;;;;;;;;;;;;;29.13;47.55;101622.41;107052;1256;25343;-48
2023/08/20 03:42:28;;;;;;;;;;;;;;;29.13;48.11;101621.84;107155;1261;24236;-48
2023/08/20 03:44:54;;;;;;;;;;;;;;;29.14;48.52;101624.80;107177;1257;25343;-48
2023/08/20 03:47:21;;;;;;;;;;;;;;;29.13;48.24;101625.59;107084;1264;25386;-48
2023/08/20 03:49:49;;;;;;;;;;;;;;;29.12;48.66;101620.51;107102;1254;25333;-49
2023/08/20 03:52:15;;;;;;;;;;;;;;;29.11;48.77;101621.46;107151;1254;25439;-48
2023/08/20 03:54:42;;;;;;;;;;;;;;;29.10;48.89;101622.27;107204;1255;25327;-49
2023/08/20 03:57:09;;;;;;;;;;;;;;;29.09;48.81;101621.45;107111;1260;25318;-49
2023/08/20 03:59:36;;;;;;;;;;;;;;;29.08;48.54;101624.04;107145;1254;23271;-48
2023/08/20 04:02:03;;;;;;;;;;;;;;;29.07;48.41;101621.89;107115;1257;25321;-48
2023/08/20 04:04:30;;;;;;;;;;;;;;;29.06;48.19;101625.02;106881;1257;25299;-48
2023/08/20 04:06:58;;;;;;;;;;;;;;;29.04;47.63;101623.57;107203;1251;22508;-48
2023/08/20 04:09:25;;;;;;;;;;;;;;;29.03;47.46;101623.84;106866;1270;25376;-48
2023/08/20 04:11:52;;;;;;;;;;;;;;;29.02;47.83;101623.16;106838;1270;25309;-48
2023/08/20 04:14:19;;;;;;;;;;;;;;;29.02;47.56;101623.15;107146;1264;25353;-49
2023/08/20 04:16:46;;;;;;;;;;;;;;;29.02;47.83;101624.09;107198;1257;25385;-48
2023/08/20 04:19:13;;;;;;;;;;;;;;;29.02;47.56;101619.83;107098;1261;25315;-49
2023/08/20 04:21:42;;;;;;;;;;;;;;;29.00;47.16;101619.22;106808;1266;25305;-49
2023/08/20 04:24:11;;;;;;;;;;;;;;;28.98;46.78;101617.71;107116;1254;22616;-49
2023/08/20 04:26:39;;;;;;;;;;;;;;;28.97;46.84;101616.94;107094;1250;25315;-49
2023/08/20 04:29:06;;;;;;;;;;;;;;;28.95;46.89;101611.73;107159;1260;24183;-49
2023/08/20 04:31:33;;;;;;;;;;;;;;;28.93;46.98;101605.83;107102;1256;25299;-49
2023/08/20 04:34:04;;;;;;;;;;;;;;;28.91;46.90;101609.95;107056;1260;22505;-49
2023/08/20 04:36:43;;;;;;;;;;;;;;;28.88;46.92;101607.88;107027;1254;25484;-49
2023/08/20 04:39:11;;;;;;;;;;;;;;;28.87;47.36;101604.23;107217;1264;25398;-49
2023/08/20 04:41:40;;;;;;;;;;;;;;;28.86;47.32;101602.65;107054;1250;25327;-49
2023/08/20 04:44:09;;;;;;;;;;;;;;;28.85;47.40;101608.30;107099;1263;25309;-49
2023/08/20 04:46:36;;;;;;;;;;;;;;;28.85;47.62;101607.44;107104;1263;23873;-49
2023/08/20 04:49:04;;;;;;;;;;;;;;;28.86;47.89;101613.27;107158;1257;25315;-49
2023/08/20 04:51:31;;;;;;;;;;;;;;;28.87;48.11;101611.67;106924;1266;25299;-49
2023/08/20 04:53:58;;;;;;;;;;;;;;;28.89;48.07;101613.86;106822;1256;25296;-49
2023/08/20 04:56:25;;;;;;;;;;;;;;;28.92;47.93;101612.30;107158;1257;25337;-49
2023/08/20 04:58:53;;;;;;;;;;;;;;;28.95;48.61;101610.64;107120;1260;25308;-49
2023/08/20 05:01:40;;;;;;;;;;;;;;;28.99;48.88;101609.08;107157;1257;25318;-49
2023/08/20 05:04:07;;;;;;;;;;;;;;;29.02;48.72;101609.79;106890;1261;25373;-50
2023/08/20 05:06:34;;;;;;;;;;;;;;;29.04;48.68;101611.17;106986;1253;22512;-49
2023/08/20 05:09:01;;;;;;;;;;;;;;;29.06;48.59;101610.89;106877;1253;25290;-49
2023/08/20 05:11:31;;;;;;;;;;;;;;;29.07;48.41;101608.94;106854;1266;25459;-50
2023/08/20 05:13:58;;;;;;;;;;;;;;;29.09;48.63;101607.91;107198;1255;25455;-50
2023/08/20 05:16:25;;;;;;;;;;;;;;;29.11;48.55;101607.90;106831;1259;25318;-50
2023/08/20 05:18:52;;;;;;;;;;;;;;;29.14;48.78;101606.59;106870;1257;25437;-50
2023/08/20 05:21:19;;;;;;;;;;;;;;;29.18;48.57;101606.98;107136;1260;25305;-50
2023/08/20 05:23:47;;;;;;;;;;;;;;;29.21;48.70;101606.19;107133;1254;23379;-50
2023/08/20 05:26:14;;;;;;;;;;;;;;;29.25;48.99;101607.46;106891;1257;25255;-50
2023/08/20 05:28:42;;;;;;;;;;;;;;;29.28;49.33;101610.77;107253;1257;25309;-50
2023/08/20 05:31:10;;;;;;;;;;;;;;;29.31;49.78;101606.73;107151;1257;25324;-50
2023/08/20 05:33:37;;;;;;;;;;;;;;;29.36;50.47;101607.91;107217;1254;25410;-50
2023/08/20 05:36:05;;;;;;;;;;;;;;;29.39;50.42;101606.70;107086;1254;25334;-50
2023/08/20 05:38:32;;;;;;;;;;;;;;;29.39;50.48;101603.81;107131;1263;25539;-49
2023/08/20 05:40:59;;;;;;;;;;;;;;;29.45;50.52;101601.91;107230;1257;25395;-49
2023/08/20 05:43:26;;;;;;;;;;;;;;;29.50;50.34;101602.88;107208;1254;25299;-49
2023/08/20 05:45:53;;;;;;;;;;;;;;;29.54;49.93;101597.69;107138;1263;25289;-49
2023/08/20 05:48:21;;;;;;;;;;;;;;;29.58;49.91;101596.44;106889;1259;22513;-49
2023/08/20 05:50:48;;;;;;;;;;;;;;;29.63;49.96;101594.86;107061;1257;25299;-50
2023/08/20 05:53:15;;;;;;;;;;;;;;;29.69;49.93;101594.19;107098;1260;22889;-49
2023/08/20 05:55:42;;;;;;;;;;;;;;;29.76;49.88;101592.38;106850;1263;25321;-49
2023/08/20 05:58:09;;;;;;;;;;;;;;;29.84;50.30;101591.30;107159;1266;25334;-49
2023/08/20 06:00:36;;;;;;;;;;;;;;;29.91;50.34;101591.55;107101;1254;25327;-49
2023/08/20 06:03:04;;;;;;;;;;;;;;;30.00;50.94;101593.58;107062;1266;25343;-49
2023/08/20 06:05:31;;;;;;;;;;;;;;;30.11;50.86;101591.14;107067;1257;25317;-49
2023/08/20 06:07:58;;;;;;;;;;;;;;;30.20;50.47;101592.05;107115;1260;25358;-49
2023/08/20 06:10:24;;;;;;;;;;;;;;;30.28;50.08;101592.02;107122;1267;25292;-49
2023/08/20 06:12:51;;;;;;;;;;;;;;;30.35;49.70;101590.35;107147;1256;25367;-49
2023/08/20 06:15:18;;;;;;;;;;;;;;;30.40;49.80;101595.08;107200;1257;23134;-49
2023/08/20 06:17:45;;;;;;;;;;;;;;;30.45;49.76;101595.02;106851;1263;25458;-49
2023/08/20 06:20:12;;;;;;;;;;;;;;;30.46;49.90;101596.63;107165;1264;22595;-49
2023/08/20 06:22:39;;;;;;;;;;;;;;;30.47;49.99;101597.83;106903;1266;25334;-49
2023/08/20 06:25:06;;;;;;;;;;;;;;;30.48;49.81;101596.30;107158;1257;25379;-49
2023/08/20 06:27:33;;;;;;;;;;;;;;;30.49;49.70;101604.95;107095;1252;25315;-49
2023/08/20 06:30:02;;;;;;;;;;;;;;;30.51;49.59;101601.77;107238;1257;25324;-49
2023/08/20 06:32:29;;;;;;;;;;;;;;;30.53;49.69;101604.77;106931;1261;25372;-49
2023/08/20 06:34:56;;;;;;;;;;;;;;;30.58;49.29;101601.13;107294;1254;25471;-49
2023/08/20 06:37:23;;;;;;;;;;;;;;;30.67;49.05;101604.44;107083;1263;25336;-49
2023/08/20 06:39:50;;;;;;;;;;;;;;;30.76;48.91;101610.73;106939;1266;22514;-49
2023/08/20 06:42:16;;;;;;;;;;;;;;;30.84;48.76;101610.15;107078;1251;25372;-49
2023/08/20 06:44:43;;;;;;;;;;;;;;;30.90;49.01;101611.38;107185;1252;25318;-49
2023/08/20 06:47:10;;;;;;;;;;;;;;;30.96;49.23;101617.31;107154;1256;25308;-49
2023/08/20 06:49:37;;;;;;;;;;;;;;;31.00;49.42;101619.77;107098;1254;25417;-49
2023/08/20 06:52:04;;;;;;;;;;;;;;;31.03;49.76;101625.23;107076;1254;25343;-49
2023/08/20 06:54:31;;;;;;;;;;;;;;;31.07;50.04;101625.90;106843;1256;25458;-49
2023/08/20 06:56:58;;;;;;;;;;;;;;;31.11;49.95;101632.85;107055;1256;25332;-49
2023/08/20 06:59:24;;;;;;;;;;;;;;;31.11;50.03;101641.09;107096;1251;25344;-49
2023/08/20 07:01:51;;;;;;;;;;;;;;;31.13;50.25;101640.55;107221;1253;25386;-49
2023/08/20 07:04:18;;;;;;;;;;;;;;;31.18;50.56;101640.27;107155;1260;25768;-49
2023/08/20 07:06:45;;;;;;;;;;;;;;;31.24;50.60;101641.09;107089;1254;25376;-49
2023/08/20 07:09:12;;;;;;;;;;;;;;;31.32;50.10;101641.09;107249;1254;25308;-48
2023/08/20 07:11:39;;;;;;;;;;;;;;;31.40;49.60;101640.11;106872;1269;25308;-50
2023/08/20 07:14:06;;;;;;;;;;;;;;;31.48;49.79;101640.27;107177;1263;25382;-49
2023/08/20 07:16:33;;;;;;;;;;;;;;;31.57;49.43;101637.83;106831;1267;22630;-49
2023/08/20 07:18:59;;;;;;;;;;;;;;;31.66;49.60;101638.50;107167;1251;25331;-48
2023/08/20 07:21:26;;;;;;;;;;;;;;;31.81;49.69;101642.36;107089;1251;25455;-49
2023/08/20 07:23:53;;;;;;;;;;;;;;;32.02;49.26;101640.38;107247;1254;25333;-49
2023/08/20 07:26:20;;;;;;;;;;;;;;;32.25;48.90;101641.90;107058;1254;25449;-49
2023/08/20 07:28:56;;;;;;;;;;;;;;;32.47;48.66;101642.52;107062;1266;25334;-49
2023/08/20 07:31:27;;;;;;;;;;;;;;;32.70;48.40;101640.92;107184;1263;25299;-48
2023/08/20 07:33:55;;;;;;;;;;;;;;;32.88;47.63;101644.95;107179;1262;25455;-48
2023/08/20 07:36:22;;;;;;;;;;;;;;;33.04;47.05;101641.23;107142;1266;22559;-48
2023/08/20 07:38:49;;;;;;;;;;;;;;;33.16;47.12;101640.65;107085;1257;25425;-49
2023/08/20 07:41:16;;;;;;;;;;;;;;;33.22;47.28;101641.52;107157;1257;25331;-49
2023/08/20 07:43:43;;;;;;;;;;;;;;;33.24;46.92;101635.38;107143;1254;25367;-48
2023/08/20 07:46:10;;;;;;;;;;;;;;;33.22;46.96;101633.75;107099;1260;25551;-48
2023/08/20 07:48:37;;;;;;;;;;;;;;;33.19;47.05;101631.34;106793;1257;25336;-48
2023/08/20 07:51:04;;;;;;;;;;;;;;;33.16;46.95;101628.58;107015;1257;25528;-49
2023/08/20 07:53:31;;;;;;;;;;;;;;;33.14;47.05;101631.20;107156;1267;23296;-49
2023/08/20 07:55:58;;;;;;;;;;;;;;;33.11;47.25;101627.84;106839;1263;25334;-49
2023/08/20 07:58:25;;;;;;;;;;;;;;;33.10;47.69;101622.44;107083;1263;25416;-49
2023/08/20 08:00:54;;;;;;;;;;;;;;;33.08;47.92;101620.91;107174;1250;22520;-48
2023/08/20 08:03:21;;;;;;;;;;;;;;;33.05;48.21;101622.23;107193;1251;25337;-48
2023/08/20 08:05:48;;;;;;;;;;;;;;;33.03;48.36;101619.95;107242;1257;25337;-49
2023/08/20 08:08:16;;;;;;;;;;;;;;;33.01;47.44;101617.31;106994;1252;25455;-49
2023/08/20 08:10:46;;;;;;;;;;;;;;;33.00;46.97;101615.56;106919;1263;22493;-49
2023/08/20 08:13:13;;;;;;;;;;;;;;;33.03;47.52;101614.34;106990;1257;25482;-49
2023/08/20 08:15:40;;;;;;;;;;;;;;;33.07;47.49;101613.36;107194;1254;25346;-49
2023/08/20 08:18:07;;;;;;;;;;;;;;;33.14;46.37;101610.46;107015;1263;25296;-49
2023/08/20 08:20:34;;;;;;;;;;;;;;;33.19;44.95;101611.04;106824;1259;25924;-49
2023/08/20 08:23:01;;;;;;;;;;;;;;;33.24;45.20;101611.55;107126;1256;25331;-49
2023/08/20 08:25:28;;;;;;;;;;;;;;;33.31;45.36;101610.73;106863;1266;25375;-49
2023/08/20 08:27:55;;;;;;;;;;;;;;;33.36;45.34;101607.57;106967;1257;25305;-49
2023/08/20 08:30:29;;;;;;;;;;;;;;;33.43;44.53;101604.70;106932;1271;25524;-49
2023/08/20 08:32:56;;;;;;;;;;;;;;;33.50;42.99;101605.41;107077;1262;25535;-49
2023/08/20 08:35:23;;;;;;;;;;;;;;;33.57;42.09;101601.02;107133;1260;25449;-49
2023/08/20 08:37:50;;;;;;;;;;;;;;;33.65;42.62;101597.76;106887;1255;25318;-49
2023/08/20 08:40:16;;;;;;;;;;;;;;;33.71;42.95;101598.15;106899;1266;25389;-49
2023/08/20 08:42:44;;;;;;;;;;;;;;;33.76;43.03;101593.52;106879;1266;25354;-49
2023/08/20 08:45:11;;;;;;;;;;;;;;;33.79;42.94;101592.83;107011;1269;24369;-49
2023/08/20 08:47:38;;;;;;;;;;;;;;;33.83;42.84;101592.61;107074;1253;22511;-49
2023/08/20 08:50:06;;;;;;;;;;;;;;;33.88;42.90;101592.21;107226;1256;24368;-49
2023/08/20 08:52:33;;;;;;;;;;;;;;;33.93;42.87;101587.72;107285;1266;25337;-49
2023/08/20 08:55:00;;;;;;;;;;;;;;;33.98;42.67;101585.91;107052;1257;25334;-49
2023/08/20 08:57:27;;;;;;;;;;;;;;;34.04;42.20;101585.14;106853;1266;25449;-49
2023/08/20 08:59:53;;;;;;;;;;;;;;;34.09;41.95;101584.17;107061;1250;25309;-49
2023/08/20 09:02:22;;;;;;;;;;;;;;;34.16;41.44;101583.62;107121;1264;25379;-48
2023/08/20 09:04:49;;;;;;;;;;;;;;;34.23;41.33;101580.29;106929;1267;24217;-48
2023/08/20 09:07:16;;;;;;;;;;;;;;;34.32;40.87;101581.11;106832;1259;25385;-49
2023/08/20 09:09:43;;;;;;;;;;;;;;;34.42;41.00;101578.58;106883;1258;25337;-49
2023/08/20 09:12:14;;;;;;;;;;;;;;;34.51;41.13;101581.08;106951;1272;25442;-49
2023/08/20 09:14:51;;;;;;;;;;;;;;;34.60;40.41;101576.27;106641;1267;25458;-49
2023/08/20 09:17:19;;;;;;;;;;;;;;;34.67;39.69;101570.42;107117;1254;25327;-49
2023/08/20 09:19:46;;;;;;;;;;;;;;;34.74;38.76;101568.92;107078;1260;23881;-49
2023/08/20 09:22:13;;;;;;;;;;;;;;;34.81;36.90;101566.64;107186;1257;25333;-49
2023/08/20 09:24:43;;;;;;;;;;;;;;;34.90;36.18;101562.92;107102;1260;25459;-49
2023/08/20 09:27:13;;;;;;;;;;;;;;;34.99;34.57;101560.27;107087;1257;25309;-49
2023/08/20 09:29:44;;;;;;;;;;;;;;;35.09;33.83;101561.66;107130;1263;25407;-49
2023/08/20 09:32:15;;;;;;;;;;;;;;;35.18;33.35;101562.05;107187;1261;23326;-48
2023/08/20 09:34:42;;;;;;;;;;;;;;;35.29;32.35;101558.20;107112;1257;25385;-50
2023/08/20 09:37:12;;;;;;;;;;;;;;;35.39;31.59;101558.49;107101;1260;22607;-49
2023/08/20 09:39:39;;;;;;;;;;;;;;;35.48;31.14;101555.80;107152;1263;25343;-50
2023/08/20 09:42:06;;;;;;;;;;;;;;;35.58;31.13;101557.52;107147;1267;25306;-49
2023/08/20 09:44:35;;;;;;;;;;;;;;;35.68;31.25;101557.83;106917;1270;25385;-49
2023/08/20 09:47:12;;;;;;;;;;;;;;;35.75;31.08;101554.61;107144;1254;25337;-49
2023/08/20 09:49:39;;;;;;;;;;;;;;;35.81;30.57;101553.89;107068;1260;22621;-49
2023/08/20 09:52:10;;;;;;;;;;;;;;;35.86;30.49;101552.46;107106;1254;25416;-49
2023/08/20 09:54:40;;;;;;;;;;;;;;;35.92;30.62;101555.15;107157;1250;25314;-49
2023/08/20 09:57:07;;;;;;;;;;;;;;;35.99;30.47;101559.39;106894;1259;25306;-49
2023/08/20 09:59:35;;;;;;;;;;;;;;;36.06;30.29;101552.34;107059;1256;25465;-49
2023/08/20 10:02:03;;;;;;;;;;;;;;;36.11;30.56;101553.89;107108;1263;25423;-49
2023/08/20 10:04:30;;;;;;;;;;;;;;;36.15;30.61;101553.21;107161;1251;25445;-49
2023/08/20 10:06:57;;;;;;;;;;;;;;;36.17;30.93;101552.02;107092;1263;25359;-49
2023/08/20 10:09:24;;;;;;;;;;;;;;;36.18;31.50;101549.20;107146;1256;25314;-49
2023/08/20 10:11:50;;;;;;;;;;;;;;;36.17;31.89;101548.05;107032;1263;25404;-49
2023/08/20 10:14:17;;;;;;;;;;;;;;;36.18;31.99;101549.44;107041;1256;25331;-49
2023/08/20 10:16:44;;;;;;;;;;;;;;;36.18;32.52;101548.15;107157;1254;23478;-49
2023/08/20 10:19:11;;;;;;;;;;;;;;;36.19;32.98;101547.09;107168;1264;25455;-49
2023/08/20 10:21:43;;;;;;;;;;;;;;;36.22;32.94;101547.88;107197;1260;25334;-49
2023/08/20 10:24:10;;;;;;;;;;;;;;;36.25;32.99;101547.89;107091;1257;25481;-49
2023/08/20 10:26:37;;;;;;;;;;;;;;;36.27;32.80;101547.05;106835;1254;25308;-48
2023/08/20 10:29:22;;;;;;;;;;;;;;;36.28;32.08;101540.08;107165;1257;25333;-49
2023/08/20 10:31:49;;;;;;;;;;;;;;;36.27;31.63;101540.19;107193;1258;25334;-49
2023/08/20 10:34:31;;;;;;;;;;;;;;;36.26;31.34;101539.42;107162;1266;25449;-49
2023/08/20 10:36:58;;;;;;;;;;;;;;;36.26;31.27;101536.52;107145;1254;24179;-49
2023/08/20 10:39:25;;;;;;;;;;;;;;;36.28;31.11;101535.41;106979;1258;25391;-49
2023/08/20 10:42:09;;;;;;;;;;;;;;;36.31;30.66;101535.09;106939;1258;25308;-49
2023/08/20 10:44:54;;;;;;;;;;;;;;;36.32;30.44;101535.45;107140;1254;25654;-49
2023/08/20 10:47:22;;;;;;;;;;;;;;;36.33;30.17;101532.73;107169;1257;25343;-49
2023/08/20 10:49:53;;;;;;;;;;;;;;;36.34;30.13;101532.08;107091;1263;25487;-49
2023/08/20 10:52:22;;;;;;;;;;;;;;;36.38;30.08;101535.68;107223;1254;25337;-48
2023/08/20 10:54:52;;;;;;;;;;;;;;;36.42;29.94;101531.05;107127;1261;24245;-49
2023/08/20 10:57:22;;;;;;;;;;;;;;;36.46;29.84;101526.55;107145;1253;25290;-49
2023/08/20 10:59:58;;;;;;;;;;;;;;;36.50;29.84;101527.79;107172;1263;25302;-49
2023/08/20 11:02:26;;;;;;;;;;;;;;;36.56;29.69;101524.39;107140;1254;25356;-49
2023/08/20 11:04:53;;;;;;;;;;;;;;;36.61;29.29;101517.49;107024;1263;25327;-49
2023/08/20 11:07:20;;;;;;;;;;;;;;;36.67;29.57;101521.84;107133;1263;25289;-49
2023/08/20 11:09:48;;;;;;;;;;;;;;;36.71;29.10;101520.17;107082;1254;25308;-49
2023/08/20 11:12:15;;;;;;;;;;;;;;;36.77;28.92;101519.21;107169;1254;25446;-49
2023/08/20 11:14:43;;;;;;;;;;;;;;;36.82;28.77;101517.36;107142;1263;25337;-49
2023/08/20 11:17:09;;;;;;;;;;;;;;;36.87;28.57;101515.39;107175;1251;25452;-50
2023/08/20 11:19:36;;;;;;;;;;;;;;;36.93;28.11;101511.14;107106;1256;23874;-49
2023/08/20 11:22:03;;;;;;;;;;;;;;;36.97;27.75;101512.12;107199;1263;25394;-49
2023/08/20 11:24:30;;;;;;;;;;;;;;;36.99;27.62;101506.02;107105;1263;25334;-49
2023/08/20 11:26:57;;;;;;;;;;;;;;;37.02;27.55;101504.02;107143;1260;25311;-49
2023/08/20 11:29:25;;;;;;;;;;;;;;;37.05;27.33;101502.92;107152;1251;25458;-49
2023/08/20 11:31:52;;;;;;;;;;;;;;;37.07;27.36;101500.16;107204;1263;25333;-49
2023/08/20 11:34:19;;;;;;;;;;;;;;;37.11;27.40;101498.98;106831;1274;25376;-49
2023/08/20 11:36:46;;;;;;;;;;;;;;;37.15;27.39;101499.22;107250;1257;25309;-49
2023/08/20 11:39:13;;;;;;;;;;;;;;;37.18;27.27;101499.02;106856;1259;25382;-49
2023/08/20 11:41:40;;;;;;;;;;;;;;;37.20;27.40;101494.15;106854;1259;25309;-49
2023/08/20 11:44:10;;;;;;;;;;;;;;;37.22;27.70;101489.76;107232;1254;25353;-49
2023/08/20 11:46:43;;;;;;;;;;;;;;;37.24;28.01;101486.73;107197;1254;25386;-49
2023/08/20 11:49:11;;;;;;;;;;;;;;;37.27;27.90;101486.40;107219;1256;22495;-49
2023/08/20 11:51:39;;;;;;;;;;;;;;;37.30;27.81;101485.48;106881;1267;25385;-49
2023/08/20 11:54:15;;;;;;;;;;;;;;;37.33;27.79;101484.66;106913;1266;25333;-49
2023/08/20 11:56:46;;;;;;;;;;;;;;;37.35;27.61;101482.91;107030;1263;22539;-49
2023/08/20 11:59:13;;;;;;;;;;;;;;;37.38;27.38;101484.16;106859;1259;23835;-49
2023/08/20 12:01:40;;;;;;;;;;;;;;;37.40;27.37;101484.95;107138;1251;25466;-49
2023/08/20 12:04:08;;;;;;;;;;;;;;;37.43;27.19;101482.42;106972;1264;25334;-49
2023/08/20 12:06:35;;;;;;;;;;;;;;;37.45;26.89;101483.08;106742;1259;25383;-49
2023/08/20 12:09:23;;;;;;;;;;;;;;;37.47;27.07;101484.81;106923;1250;25334;-49
2023/08/20 12:11:51;;;;;;;;;;;;;;;37.49;26.84;101480.10;106736;1267;25427;-48
2023/08/20 12:14:18;;;;;;;;;;;;;;;37.49;26.92;101479.69;107062;1257;25252;-49
2023/08/20 12:16:45;;;;;;;;;;;;;;;37.49;26.93;101479.70;107179;1254;25364;-49
2023/08/20 12:19:16;;;;;;;;;;;;;;;37.50;26.90;101475.04;107141;1254;25331;-48
2023/08/20 12:21:43;;;;;;;;;;;;;;;37.51;26.87;101471.86;107070;1254;25321;-48
2023/08/20 12:24:10;;;;;;;;;;;;;;;37.51;26.56;101469.69;107055;1257;25420;-48
2023/08/20 12:26:38;;;;;;;;;;;;;;;37.51;26.29;101472.35;107125;1267;22527;-48
2023/08/20 12:29:05;;;;;;;;;;;;;;;37.52;26.39;101468.62;107154;1257;25299;-48